Time;durP1;ratioP1;P1;durP2;ratioP2;P2;SDS_P1;SDS_P2;PMS_P1;PMS_P2;Temp;Humidity;BMP_temperature;BMP_pressure;BME280_temperature;BME280_humidity;BME280_pressure;Samples;Min_cycle;Max_cycle;Signal;HPM_P1;HPM_P2
2022/06/03 00:02:08;;;;;;;2.13;2.03;;;15.80;99.90;;;;;;5091357;28;20214;-75
2022/06/03 00:04:55;;;;;;;1.92;1.83;;;15.80;99.90;;;;;;5093619;28;20222;-74
2022/06/03 00:07:36;;;;;;;2.00;1.90;;;15.80;99.90;;;;;;5092570;28;20231;-74
2022/06/03 00:10:12;;;;;;;2.20;2.10;;;15.70;99.90;;;;;;5093498;28;20187;-76
2022/06/03 00:12:57;;;;;;;1.92;1.83;;;15.60;99.90;;;;;;5092255;28;20182;-74
2022/06/03 00:15:52;;;;;;;2.00;1.90;;;15.60;99.90;;;;;;5099171;28;20178;-73
2022/06/03 00:18:48;;;;;;;2.13;2.03;;;15.50;99.90;;;;;;5078237;28;20218;-74
2022/06/03 00:21:38;;;;;;;2.17;2.00;;;15.40;99.90;;;;;;5089410;28;20240;-74
2022/06/03 00:24:33;;;;;;;2.10;2.00;;;15.30;99.90;;;;;;5095192;28;20193;-73
2022/06/03 00:27:20;;;;;;;2.22;2.13;;;15.20;99.90;;;;;;5090062;28;20206;-74
2022/06/03 00:29:57;;;;;;;1.80;1.77;;;15.10;99.90;;;;;;5090416;28;20213;-73
2022/06/03 00:32:43;;;;;;;2.05;1.95;;;15.10;99.90;;;;;;5091514;28;20624;-74
2022/06/03 00:35:26;;;;;;;2.45;2.25;;;15.10;99.90;;;;;;5090372;28;20186;-75
2022/06/03 00:37:52;;;;;;;1.88;1.77;;;15.00;99.90;;;;;;5093480;28;20174;-75
2022/06/03 00:41:00;;;;;;;1.95;1.85;;;15.00;99.90;;;;;;5091568;28;20650;-75
2022/06/03 00:43:46;;;;;;;3.03;2.00;;;15.00;99.90;;;;;;5069996;28;20222;-74
2022/06/03 00:46:45;;;;;;;2.30;2.10;;;15.00;99.90;;;;;;5087471;28;20171;-77
2022/06/03 00:49:26;;;;;;;2.20;2.00;;;15.00;99.90;;;;;;5096959;28;20180;-74
2022/06/03 00:52:06;;;;;;;2.00;1.90;;;15.00;99.90;;;;;;5091114;28;20182;-74
2022/06/03 00:54:44;;;;;;;1.90;1.80;;;15.00;99.90;;;;;;5094415;28;20177;-73
2022/06/03 00:57:36;;;;;;;2.00;1.90;;;15.00;99.90;;;;;;5085668;28;20574;-73
2022/06/03 01:00:17;;;;;;;1.90;1.80;;;14.90;99.90;;;;;;5101296;28;20201;-74
2022/06/03 01:03:04;;;;;;;2.42;2.15;;;14.90;99.90;;;;;;5089298;28;20179;-74
2022/06/03 01:06:04;;;;;;;2.58;2.40;;;14.90;99.90;;;;;;5092518;28;20218;-75
2022/06/03 01:08:39;;;;;;;2.08;1.98;;;14.80;99.90;;;;;;5093633;28;21115;-73
2022/06/03 01:11:23;;;;;;;2.85;1.95;;;14.80;99.90;;;;;;5087537;28;20266;-75
2022/06/03 01:14:17;;;;;;;1.83;1.73;;;14.80;99.90;;;;;;5090104;28;20171;-73
2022/06/03 01:17:02;;;;;;;1.90;1.80;;;14.80;99.90;;;;;;5092430;28;20183;-74
2022/06/03 01:20:01;;;;;;;1.90;1.80;;;14.70;99.90;;;;;;5098038;28;20178;-74
2022/06/03 01:22:57;;;;;;;2.38;2.08;;;14.70;99.90;;;;;;5090478;28;20249;-73
2022/06/03 01:25:38;;;;;;;2.10;2.00;;;14.60;99.90;;;;;;5086447;28;20199;-72
2022/06/03 01:28:32;;;;;;;1.77;1.70;;;14.40;99.90;;;;;;5100389;28;20189;-73
2022/06/03 01:31:32;;;;;;;2.20;2.10;;;14.20;99.90;;;;;;5082941;28;20585;-74
2022/06/03 01:34:29;;;;;;;1.95;1.85;;;14.20;99.90;;;;;;5096928;28;20182;-74
2022/06/03 01:37:16;;;;;;;1.98;1.88;;;14.10;99.90;;;;;;5090418;28;20637;-74
2022/06/03 01:40:06;;;;;;;2.97;1.83;;;14.00;99.90;;;;;;5087904;28;20267;-75
2022/06/03 01:42:53;;;;;;;1.60;1.60;;;14.00;99.90;;;;;;5094402;28;20279;-75
2022/06/03 01:45:55;;;;;;;2.10;2.00;;;14.00;99.90;;;;;;5104622;28;20250;-74
2022/06/03 01:48:39;;;;;;;1.67;1.58;;;14.00;99.90;;;;;;5098818;28;20174;-75
2022/06/03 01:51:23;;;;;;;2.13;2.03;;;13.90;99.90;;;;;;5088199;28;20198;-74
2022/06/03 01:54:20;;;;;;;1.80;1.70;;;13.90;99.90;;;;;;5101197;28;20605;-74
2022/06/03 01:57:25;;;;;;;1.50;1.50;;;13.90;99.90;;;;;;5089510;28;20179;-74
2022/06/03 02:00:28;;;;;;;2.00;1.80;;;13.90;99.90;;;;;;5091429;28;20251;-74
2022/06/03 02:03:12;;;;;;;2.97;2.00;;;13.80;99.90;;;;;;5095638;28;20182;-74
2022/06/03 02:06:05;;;;;;;1.70;1.60;;;13.80;99.90;;;;;;5097068;28;20661;-75
2022/06/03 02:09:03;;;;;;;1.90;1.90;;;13.90;99.90;;;;;;5090452;28;20246;-76
2022/06/03 02:11:47;;;;;;;1.92;1.80;;;14.00;99.90;;;;;;5099299;28;20202;-76
2022/06/03 02:14:16;;;;;;;1.98;1.70;;;14.00;99.90;;;;;;5094845;28;20178;-75
2022/06/03 02:16:56;;;;;;;2.38;2.28;;;14.00;99.90;;;;;;5091217;28;20175;-75
2022/06/03 02:20:00;;;;;;;1.70;1.67;;;14.00;99.90;;;;;;5094425;28;20186;-75
2022/06/03 02:22:41;;;;;;;2.05;1.95;;;13.90;99.90;;;;;;5093079;28;20313;-75
2022/06/03 02:25:18;;;;;;;2.45;2.30;;;13.90;99.90;;;;;;5094855;28;20738;-75
2022/06/03 02:28:12;;;;;;;2.15;2.05;;;13.90;99.90;;;;;;5090997;28;20201;-74
2022/06/03 02:30:52;;;;;;;2.10;2.00;;;13.80;99.90;;;;;;5093970;28;20199;-75
2022/06/03 02:33:56;;;;;;;2.13;2.03;;;13.90;99.90;;;;;;5092320;28;20289;-76
2022/06/03 02:36:40;;;;;;;2.40;2.25;;;13.90;99.90;;;;;;5097998;28;20236;-75
2022/06/03 02:39:33;;;;;;;2.20;2.08;;;13.70;99.90;;;;;;5099323;28;20179;-76
2022/06/03 02:42:17;;;;;;;2.78;2.42;;;13.50;99.90;;;;;;5095414;28;20171;-75
2022/06/03 02:44:49;;;;;;;2.30;2.10;;;13.50;99.90;;;;;;5091923;28;20395;-75
2022/06/03 02:47:42;;;;;;;2.20;2.00;;;13.50;99.90;;;;;;5100374;28;20508;-75
2022/06/03 02:50:38;;;;;;;2.33;2.22;;;13.50;99.90;;;;;;5088527;28;20194;-75
2022/06/03 02:53:48;;;;;;;2.35;2.25;;;13.50;99.90;;;;;;5091300;28;20680;-75
2022/06/03 02:56:48;;;;;;;2.28;2.05;;;13.50;99.90;;;;;;5099338;28;20189;-76
2022/06/03 02:59:35;;;;;;;2.33;2.22;;;13.50;99.90;;;;;;5091750;28;20179;-76
2022/06/03 03:02:23;;;;;;;2.22;2.13;;;13.40;99.90;;;;;;5084956;28;20257;-74
2022/06/03 03:05:02;;;;;;;1.98;1.88;;;13.30;99.90;;;;;;5094107;28;20570;-74
2022/06/03 03:07:47;;;;;;;2.60;2.17;;;13.20;99.90;;;;;;5090732;28;20178;-74
2022/06/03 03:10:40;;;;;;;3.55;2.05;;;13.20;99.90;;;;;;5098661;28;20186;-75
2022/06/03 03:13:19;;;;;;;2.03;2.00;;;13.30;99.90;;;;;;5090639;28;20171;-74
2022/06/03 03:15:47;;;;;;;1.80;1.70;;;13.20;99.90;;;;;;5087795;28;20179;-74
2022/06/03 03:18:58;;;;;;;2.10;2.00;;;13.20;99.90;;;;;;5095467;28;20196;-74
2022/06/03 03:22:08;;;;;;;2.10;2.00;;;13.20;99.90;;;;;;5089352;28;20281;-76
2022/06/03 03:25:10;;;;;;;2.00;1.90;;;13.10;99.90;;;;;;5084698;28;20260;-73
2022/06/03 03:27:54;;;;;;;2.08;1.90;;;13.10;99.90;;;;;;5091551;28;20254;-74
2022/06/03 03:30:21;;;;;;;2.38;2.28;;;13.10;99.90;;;;;;5094519;28;20599;-74
2022/06/03 03:33:08;;;;;;;2.80;2.10;;;13.00;99.90;;;;;;5089503;28;20179;-74
2022/06/03 03:35:46;;;;;;;2.53;1.90;;;13.00;99.90;;;;;;5081596;28;20268;-73
2022/06/03 03:38:49;;;;;;;2.10;2.00;;;13.10;99.90;;;;;;5092229;28;20648;-80
2022/06/03 03:41:46;;;;;;;2.58;2.38;;;13.00;99.90;;;;;;5047183;28;20204;-73
2022/06/03 03:44:33;;;;;;;3.53;2.50;;;13.00;99.90;;;;;;5089032;28;20232;-75
2022/06/03 03:47:48;;;;;;;2.35;2.13;;;13.00;99.90;;;;;;5090896;28;20175;-73
2022/06/03 03:50:28;;;;;;;2.15;2.05;;;13.00;99.90;;;;;;5050024;28;20204;-73
2022/06/03 03:52:59;;;;;;;2.85;2.13;;;13.10;99.90;;;;;;5077140;28;20610;-73
2022/06/03 03:55:42;;;;;;;2.22;2.13;;;13.10;99.90;;;;;;5087221;28;20244;-74
2022/06/03 03:58:36;;;;;;;2.38;2.28;;;13.10;99.90;;;;;;5086438;28;20618;-75
2022/06/03 04:01:33;;;;;;;2.45;2.25;;;13.20;99.90;;;;;;5080277;28;20195;-73
2022/06/03 04:04:33;;;;;;;2.38;2.17;;;13.40;99.90;;;;;;5085603;28;20288;-74
2022/06/03 04:07:25;;;;;;;2.42;2.10;;;13.50;99.90;;;;;;5084064;28;20175;-74
2022/06/03 04:10:12;;;;;;;4.75;2.30;;;13.60;99.90;;;;;;5088989;28;20573;-74
2022/06/03 04:12:57;;;;;;;2.13;1.98;;;13.70;99.90;;;;;;5083185;28;21107;-75
2022/06/03 04:15:46;;;;;;;2.15;2.00;;;13.80;99.90;;;;;;5085322;28;20656;-74
2022/06/03 04:18:47;;;;;;;2.20;2.10;;;13.90;99.90;;;;;;5065292;28;20657;-73
2022/06/03 04:21:32;;;;;;;2.58;1.80;;;14.00;99.90;;;;;;5044816;28;20285;-73
2022/06/03 04:24:19;;;;;;;2.30;2.20;;;14.10;99.90;;;;;;5084756;28;20287;-74
2022/06/03 04:27:03;;;;;;;2.15;2.05;;;14.30;99.90;;;;;;5091507;28;20186;-78
2022/06/03 04:29:41;;;;;;;1.88;1.77;;;14.30;99.90;;;;;;5087689;28;20570;-74
2022/06/03 04:32:44;;;;;;;2.45;2.30;;;14.40;99.90;;;;;;5074092;28;20172;-74
2022/06/03 04:35:31;;;;;;;2.08;1.98;;;14.50;99.90;;;;;;5080196;28;20709;-73
2022/06/03 04:38:15;;;;;;;1.98;1.80;;;14.70;99.90;;;;;;5081693;28;20175;-73
2022/06/03 04:41:00;;;;;;;2.28;2.08;;;14.70;99.90;;;;;;5083732;28;20195;-73
2022/06/03 04:43:49;;;;;;;1.95;1.85;;;14.80;99.90;;;;;;5086182;28;20285;-75
2022/06/03 04:46:47;;;;;;;2.20;2.00;;;15.00;99.90;;;;;;5093427;28;20232;-79
2022/06/03 04:49:34;;;;;;;5.35;2.20;;;15.10;99.90;;;;;;5087900;28;20213;-77
2022/06/03 04:52:22;;;;;;;3.05;2.00;;;15.30;99.90;;;;;;5092272;28;20262;-80
2022/06/03 04:58:24;;;;;;;2.10;1.90;;;15.60;99.90;;;;;;5067567;28;20198;-76
2022/06/03 05:01:20;;;;;;;4.95;2.10;;;15.70;99.90;;;;;;5098904;28;20223;-76
2022/06/03 05:04:03;;;;;;;3.30;3.00;;;15.70;99.90;;;;;;5084969;28;20202;-76
2022/06/03 05:06:44;;;;;;;2.20;2.10;;;15.80;99.90;;;;;;5085062;28;20183;-76
2022/06/03 05:09:49;;;;;;;1.95;1.95;;;15.90;99.90;;;;;;5088127;28;20173;-77
2022/06/03 05:12:39;;;;;;;1.92;1.83;;;16.00;99.90;;;;;;5088445;28;20179;-77
2022/06/03 05:15:19;;;;;;;2.53;2.28;;;16.10;99.90;;;;;;5093385;28;20660;-76
2022/06/03 05:18:15;;;;;;;5.22;2.40;;;16.10;99.90;;;;;;5085001;28;20202;-76
2022/06/03 05:20:52;;;;;;;2.30;2.20;;;16.30;99.90;;;;;;5091055;28;20205;-77
2022/06/03 05:23:58;;;;;;;2.22;2.13;;;16.40;99.90;;;;;;5093637;28;20178;-76
2022/06/03 05:26:46;;;;;;;3.60;2.50;;;16.40;99.90;;;;;;5087815;28;20230;-76
2022/06/03 05:29:25;;;;;;;2.17;2.08;;;16.50;99.90;;;;;;5090301;28;20190;-76
2022/06/03 05:32:23;;;;;;;2.28;2.17;;;16.50;99.90;;;;;;5091698;28;20712;-75
2022/06/03 05:35:17;;;;;;;3.15;2.92;;;16.60;99.90;;;;;;5086043;28;20194;-76
2022/06/03 05:37:48;;;;;;;2.75;2.03;;;16.70;99.90;;;;;;5090726;28;20178;-73
2022/06/03 05:40:37;;;;;;;2.40;2.20;;;16.70;99.90;;;;;;5089685;28;20622;-75
2022/06/03 05:43:14;;;;;;;2.30;2.15;;;16.60;99.90;;;;;;5086180;28;20191;-73
2022/06/03 05:46:05;;;;;;;2.65;2.40;;;16.60;99.90;;;;;;5081612;28;20175;-72
2022/06/03 05:48:53;;;;;;;3.78;2.55;;;16.50;99.90;;;;;;5089059;28;20174;-72
2022/06/03 05:51:57;;;;;;;1.90;1.80;;;16.50;99.90;;;;;;5087599;28;20533;-71
2022/06/03 05:54:49;;;;;;;3.47;2.10;;;16.50;99.90;;;;;;5060987;28;20297;-72
2022/06/03 05:57:39;;;;;;;3.70;2.08;;;16.50;99.90;;;;;;5085474;28;20190;-76
2022/06/03 06:00:32;;;;;;;2.25;2.15;;;16.40;99.90;;;;;;5091254;28;20202;-72
2022/06/03 06:03:38;;;;;;;2.35;2.10;;;16.40;99.90;;;;;;5085373;28;20180;-72
2022/06/03 06:06:09;;;;;;;2.65;2.45;;;16.50;99.90;;;;;;5091019;28;20750;-73
2022/06/03 06:09:01;;;;;;;2.70;2.50;;;16.60;99.90;;;;;;5087938;28;20550;-76
2022/06/03 06:11:32;;;;;;;2.80;2.60;;;16.70;99.90;;;;;;5091686;28;20202;-75
2022/06/03 06:14:09;;;;;;;2.55;2.40;;;16.90;99.90;;;;;;5080303;28;20742;-75
2022/06/03 06:16:41;;;;;;;2.83;2.63;;;17.10;99.90;;;;;;5076659;28;20562;-75
2022/06/03 06:19:39;;;;;;;3.17;2.70;;;17.20;99.90;;;;;;5088685;28;20177;-76
2022/06/03 06:22:09;;;;;;;2.40;2.20;;;17.30;99.90;;;;;;5094625;28;20214;-77
2022/06/03 06:24:34;;;;;;;2.67;2.35;;;17.50;99.90;;;;;;5089290;28;20251;-77
2022/06/03 06:27:06;;;;;;;2.35;2.25;;;17.60;99.90;;;;;;5087904;28;20564;-77
2022/06/03 06:30:06;;;;;;;7.93;2.60;;;17.70;99.90;;;;;;5097038;28;20200;-77
2022/06/03 06:32:36;;;;;;;2.38;2.10;;;17.80;99.90;;;;;;5095871;28;20209;-79
2022/06/03 06:35:22;;;;;;;2.92;2.25;;;18.00;99.90;;;;;;5086997;28;20228;-78
2022/06/03 06:37:57;;;;;;;2.70;2.50;;;18.20;99.90;;;;;;5086774;28;20174;-78
2022/06/03 06:41:00;;;;;;;2.10;2.00;;;18.30;99.90;;;;;;5090931;28;20342;-76
2022/06/03 06:43:39;;;;;;;2.58;2.03;;;18.40;99.90;;;;;;5091547;28;20235;-75
2022/06/03 06:46:17;;;;;;;2.40;2.20;;;18.50;99.90;;;;;;5089642;28;20179;-76
2022/06/03 06:49:09;;;;;;;3.63;2.03;;;18.60;99.90;;;;;;5085150;28;20183;-77
2022/06/03 06:51:53;;;;;;;3.08;2.63;;;18.70;99.90;;;;;;5076194;28;20215;-74
2022/06/03 06:54:46;;;;;;;2.10;2.00;;;18.90;99.90;;;;;;5091676;28;20582;-74
2022/06/03 06:57:32;;;;;;;2.88;2.42;;;19.00;99.90;;;;;;5087931;28;20214;-78
2022/06/03 07:00:22;;;;;;;3.78;2.40;;;19.20;99.90;;;;;;5091809;28;20198;-74
2022/06/03 07:02:59;;;;;;;3.63;2.70;;;19.40;99.90;;;;;;5090486;28;20174;-74
2022/06/03 07:05:41;;;;;;;2.50;2.40;;;19.50;99.90;;;;;;5079977;28;20256;-75
2022/06/03 07:08:14;;;;;;;4.15;2.50;;;19.60;99.90;;;;;;5085361;28;20202;-76
2022/06/03 07:11:05;;;;;;;8.05;2.72;;;19.70;99.90;;;;;;5093180;28;20725;-75
2022/06/03 07:13:33;;;;;;;6.57;2.80;;;19.80;99.90;;;;;;5083399;28;20182;-73
2022/06/03 07:16:08;;;;;;;4.68;3.00;;;19.90;99.90;;;;;;5088942;28;20202;-74
2022/06/03 07:22:24;;;;;;;4.55;2.75;;;20.10;99.90;;;;;;5043401;28;20558;-74
2022/06/03 07:25:14;;;;;;;2.60;2.40;;;20.40;99.90;;;;;;5085936;28;20726;-74
2022/06/03 07:27:42;;;;;;;2.45;2.35;;;20.50;99.90;;;;;;5083821;28;20600;-75
2022/06/03 07:30:29;;;;;;;2.55;2.45;;;20.70;99.90;;;;;;5086146;28;20258;-75
2022/06/03 07:33:11;;;;;;;3.10;2.20;;;20.80;99.90;;;;;;5085137;28;20179;-75
2022/06/03 07:35:50;;;;;;;2.67;2.47;;;21.00;99.90;;;;;;5081862;28;20182;-74
2022/06/03 07:38:15;;;;;;;2.70;2.50;;;21.10;99.90;;;;;;5083630;28;20281;-73
2022/06/03 07:40:47;;;;;;;3.90;3.00;;;21.30;99.90;;;;;;5082200;28;20277;-73
2022/06/03 07:43:21;;;;;;;3.15;2.70;;;21.50;99.90;;;;;;5082793;28;20691;-74
2022/06/03 07:46:03;;;;;;;2.85;2.65;;;21.70;99.90;;;;;;5086750;28;20179;-74
2022/06/03 07:48:32;;;;;;;2.67;2.47;;;21.90;99.90;;;;;;5090050;28;20185;-74
2022/06/03 07:51:04;;;;;;;2.55;2.45;;;22.10;99.90;;;;;;5086271;28;20209;-74
2022/06/03 07:53:54;;;;;;;4.30;2.78;;;22.30;99.90;;;;;;5088608;28;20183;-74
2022/06/03 07:56:22;;;;;;;3.17;2.58;;;22.50;99.90;;;;;;5086253;28;20185;-74
2022/06/03 07:58:52;;;;;;;2.65;2.47;;;22.60;99.90;;;;;;5081942;28;20171;-75
2022/06/03 08:01:43;;;;;;;3.05;2.85;;;22.60;99.90;;;;;;5086891;28;20191;-75
2022/06/03 08:04:25;;;;;;;2.90;2.70;;;22.80;99.90;;;;;;5090656;28;20220;-73
2022/06/03 08:12:30;;;;;;;3.55;2.50;;;23.50;99.90;;;;;;5090456;28;20208;-78
2022/06/03 08:14:56;;;;;;;2.70;2.58;;;23.80;99.90;;;;;;5085203;28;20187;-73
2022/06/03 08:17:24;;;;;;;3.05;2.22;;;24.00;99.90;;;;;;5091262;28;20183;-74
2022/06/03 08:19:50;;;;;;;2.65;2.45;;;24.00;99.90;;;;;;5087927;28;20289;-74
2022/06/03 08:22:23;;;;;;;2.55;2.33;;;24.00;99.90;;;;;;5092891;28;20235;-74
2022/06/03 08:24:56;;;;;;;2.17;2.05;;;24.00;99.90;;;;;;5093797;28;20198;-74
2022/06/03 08:27:30;;;;;;;3.17;1.90;;;23.80;99.90;;;;;;5086376;28;20181;-74
2022/06/03 08:29:58;;;;;;;2.50;2.38;;;23.70;99.90;;;;;;5080741;28;20246;-75
2022/06/03 08:32:38;;;;;;;2.50;2.40;;;23.50;99.90;;;;;;5089941;28;20616;-75
2022/06/03 08:35:10;;;;;;;2.70;2.50;;;23.50;99.90;;;;;;5089458;28;20271;-76
2022/06/03 08:37:55;;;;;;;4.05;2.30;;;23.60;99.90;;;;;;5086952;28;20193;-75
2022/06/03 08:40:42;;;;;;;2.67;2.40;;;23.60;99.90;;;;;;5086512;28;20264;-77
2022/06/03 08:43:31;;;;;;;2.88;2.67;;;23.50;99.90;;;;;;5089104;28;20202;-75
2022/06/03 08:46:26;;;;;;;5.55;2.33;;;23.60;99.90;;;;;;5079773;28;20203;-75
2022/06/03 08:49:04;;;;;;;6.18;3.30;;;23.70;99.90;;;;;;5092909;28;20250;-75
2022/06/03 08:51:40;;;;;;;5.20;2.75;;;23.60;99.90;;;;;;5087393;28;20205;-75
2022/06/03 08:54:27;;;;;;;3.47;2.72;;;23.70;99.90;;;;;;5083530;28;20196;-76
2022/06/03 08:57:05;;;;;;;4.35;2.47;;;23.80;99.90;;;;;;5083217;28;20262;-75
2022/06/03 08:59:46;;;;;;;2.50;2.30;;;23.90;99.90;;;;;;5086485;28;20603;-75
2022/06/03 09:02:27;;;;;;;2.72;2.55;;;24.00;99.90;;;;;;5091335;28;20174;-75
2022/06/03 09:05:14;;;;;;;4.40;3.00;;;24.20;99.90;;;;;;5085635;28;20198;-75
2022/06/03 09:07:48;;;;;;;2.83;2.63;;;24.30;99.90;;;;;;5090868;28;20186;-75
2022/06/03 09:10:21;;;;;;;3.22;2.78;;;24.40;99.90;;;;;;5095234;28;20280;-75
2022/06/03 09:13:08;;;;;;;5.13;2.80;;;24.50;99.90;;;;;;5090406;28;20179;-73
2022/06/03 09:15:43;;;;;;;2.92;2.60;;;24.50;99.90;;;;;;5092534;28;20531;-74
2022/06/03 09:18:33;;;;;;;2.30;2.20;;;24.60;99.90;;;;;;5088761;28;20269;-74
2022/06/03 09:21:19;;;;;;;2.70;2.50;;;24.70;99.90;;;;;;5087228;28;20766;-74
2022/06/03 09:23:49;;;;;;;2.83;2.63;;;25.00;99.90;;;;;;5082731;28;20670;-74
2022/06/03 09:26:25;;;;;;;2.60;2.40;;;25.10;99.90;;;;;;5083932;28;20183;-76
2022/06/03 09:28:53;;;;;;;2.72;2.53;;;25.30;99.90;;;;;;5092558;28;20235;-75
2022/06/03 09:31:21;;;;;;;2.42;2.22;;;25.60;99.90;;;;;;5094047;28;20191;-77
2022/06/03 09:33:47;;;;;;;3.67;2.85;;;26.20;99.90;;;;;;5087746;28;20190;-74
2022/06/03 09:36:18;;;;;;;2.70;2.50;;;27.70;97.20;;;;;;5086129;28;20658;-75
2022/06/03 09:38:54;;;;;;;2.47;1.92;;;30.20;94.00;;;;;;5088000;28;20191;-76
2022/06/03 09:41:23;;;;;;;4.78;2.20;;;32.10;81.50;;;;;;5088019;28;20212;-76
2022/06/03 09:43:53;;;;;;;3.00;2.25;;;34.10;73.40;;;;;;5090304;28;20670;-74
2022/06/03 09:46:22;;;;;;;3.17;2.00;;;35.50;63.20;;;;;;5082814;28;20557;-74
2022/06/03 09:48:48;;;;;;;2.03;1.83;;;36.30;61.20;;;;;;5089059;28;20186;-74
2022/06/03 09:51:19;;;;;;;4.15;2.17;;;37.40;55.20;;;;;;5085052;28;20213;-75
2022/06/03 09:53:46;;;;;;;2.75;1.80;;;38.10;54.70;;;;;;5092790;28;20182;-73
2022/06/03 09:56:21;;;;;;;5.30;2.05;;;38.70;53.00;;;;;;5085307;28;20190;-73
2022/06/03 09:58:47;;;;;;;1.67;1.58;;;38.90;50.60;;;;;;5083410;28;20214;-72
2022/06/03 10:01:13;;;;;;;2.10;1.75;;;39.50;49.00;;;;;;5090150;28;20228;-70
2022/06/03 10:03:39;;;;;;;4.70;1.90;;;39.70;47.50;;;;;;5088036;28;20235;-71
2022/06/03 10:06:05;;;;;;;2.58;2.03;;;40.20;48.40;;;;;;5098220;28;20271;-72
2022/06/03 10:14:02;;;;;;;2.53;1.50;;;40.80;45.00;;;;;;5091182;28;20676;-72
2022/06/03 10:16:28;;;;;;;2.40;2.20;;;41.40;44.00;;;;;;5089241;28;20186;-73
2022/06/03 10:18:56;;;;;;;1.77;1.70;;;40.80;46.10;;;;;;5089919;28;20195;-72
2022/06/03 10:21:21;;;;;;;1.80;1.70;;;41.40;44.50;;;;;;5087843;28;20213;-73
2022/06/03 10:23:52;;;;;;;2.63;1.92;;;42.00;44.20;;;;;;5095930;28;20199;-72
2022/06/03 10:26:28;;;;;;;3.75;1.73;;;42.30;43.10;;;;;;5084633;28;20182;-72
2022/06/03 10:28:56;;;;;;;2.60;1.70;;;42.80;42.60;;;;;;5097669;28;20654;-72
2022/06/03 10:31:29;;;;;;;1.80;1.70;;;42.80;43.10;;;;;;5091173;28;20194;-72
2022/06/03 10:33:57;;;;;;;1.80;1.70;;;42.60;43.00;;;;;;5095306;28;20273;-72
2022/06/03 10:36:38;;;;;;;1.92;1.73;;;42.10;42.20;;;;;;5088981;28;20234;-72
2022/06/03 10:39:05;;;;;;;1.40;1.40;;;42.40;42.40;;;;;;5085344;28;20177;-71
2022/06/03 10:41:40;;;;;;;2.05;1.90;;;42.50;43.10;;;;;;5087741;28;20201;-71
2022/06/03 10:44:23;;;;;;;2.42;1.60;;;42.70;41.80;;;;;;5085007;28;20266;-72
2022/06/03 10:47:12;;;;;;;1.52;1.42;;;42.80;41.50;;;;;;5088158;28;20219;-71
2022/06/03 10:49:58;;;;;;;1.80;1.70;;;42.90;42.10;;;;;;5084359;28;20197;-71
2022/06/03 11:01:19;;;;;;;1.48;1.38;;;41.90;40.90;;;;;;5086396;28;20201;-72
2022/06/03 11:03:50;;;;;;;1.77;1.67;;;42.00;41.60;;;;;;5082218;28;20429;-68
2022/06/03 11:06:18;;;;;;;1.52;1.50;;;41.70;41.80;;;;;;5095528;28;20183;-68
2022/06/03 11:08:46;;;;;;;1.48;1.30;;;42.20;40.70;;;;;;5082572;28;20231;-68
2022/06/03 11:11:12;;;;;;;2.05;1.42;;;42.80;39.80;;;;;;5091142;28;20197;-70
2022/06/03 11:13:41;;;;;;;1.40;1.30;;;43.10;39.40;;;;;;5091315;28;20186;-69
2022/06/03 11:16:20;;;;;;;1.30;1.30;;;43.10;39.80;;;;;;5082021;28;20178;-69
2022/06/03 11:18:46;;;;;;;1.70;1.20;;;43.30;38.90;;;;;;5084878;28;20235;-72
2022/06/03 11:21:26;;;;;;;1.35;1.20;;;43.20;39.70;;;;;;5087151;28;20600;-70
2022/06/03 11:23:53;;;;;;;1.45;1.23;;;43.00;39.70;;;;;;5083037;28;20190;-74
2022/06/03 11:26:19;;;;;;;1.25;1.15;;;42.50;39.30;;;;;;5101823;28;20192;-75
2022/06/03 11:28:58;;;;;;;2.58;1.30;;;42.20;41.10;;;;;;5093953;28;20751;-71
2022/06/03 11:31:44;;;;;;;1.23;1.20;;;42.50;40.00;;;;;;5090750;28;20562;-71
2022/06/03 11:34:14;;;;;;;1.20;1.20;;;42.60;39.40;;;;;;5090301;28;20182;-71
2022/06/03 11:36:50;;;;;;;1.58;1.48;;;42.40;39.30;;;;;;5080289;28;20182;-71
2022/06/03 11:40:11;;;;;;;3.03;1.65;;;42.10;40.00;;;;;;5084676;28;20170;-71
2022/06/03 11:43:13;;;;;;;1.30;1.20;;;42.20;40.20;;;;;;5045339;28;20217;-71
2022/06/03 11:45:46;;;;;;;1.65;1.33;;;42.60;40.80;;;;;;5092363;28;20536;-70
2022/06/03 11:48:30;;;;;;;1.38;1.38;;;43.00;37.70;;;;;;5082661;28;20169;-71
2022/06/03 11:50:57;;;;;;;4.38;1.58;;;42.20;39.00;;;;;;5082615;28;20189;-68
2022/06/03 11:53:28;;;;;;;2.38;1.70;;;42.30;40.50;;;;;;5090103;28;20177;-70
2022/06/03 11:55:57;;;;;;;1.52;1.50;;;42.10;40.90;;;;;;5089279;28;20236;-70
2022/06/03 11:58:53;;;;;;;2.40;1.33;;;42.00;40.30;;;;;;5085471;28;20651;-69
2022/06/03 12:01:36;;;;;;;1.30;1.20;;;41.60;41.30;;;;;;5071673;28;20255;-69
2022/06/03 12:04:11;;;;;;;1.73;1.50;;;41.80;41.20;;;;;;5091742;28;20587;-69
2022/06/03 12:07:00;;;;;;;1.52;1.20;;;41.90;40.30;;;;;;5079058;28;20185;-69
2022/06/03 12:09:34;;;;;;;1.40;1.30;;;42.40;40.40;;;;;;5083922;28;20181;-69
2022/06/03 12:15:41;;;;;;;1.27;1.17;;;42.40;40.70;;;;;;5081728;28;20193;-69
2022/06/03 12:18:07;;;;;;;1.45;1.30;;;42.40;39.70;;;;;;5065905;28;20691;-69
2022/06/03 12:20:32;;;;;;;1.38;1.35;;;41.90;40.30;;;;;;5074343;28;20229;-70
2022/06/03 12:23:13;;;;;;;1.23;1.23;;;41.90;41.30;;;;;;5071926;28;20182;-70
2022/06/03 12:25:54;;;;;;;1.45;1.38;;;41.90;41.10;;;;;;5080031;28;20205;-72
2022/06/03 12:28:25;;;;;;;1.40;1.30;;;41.70;41.20;;;;;;5082495;28;20185;-71
2022/06/03 12:31:01;;;;;;;1.20;1.20;;;42.50;39.70;;;;;;5090110;28;20301;-71
2022/06/03 12:33:43;;;;;;;1.10;1.10;;;43.00;39.70;;;;;;5085236;28;20192;-71
2022/06/03 12:36:30;;;;;;;1.05;1.00;;;42.20;39.70;;;;;;5086744;28;20197;-74
2022/06/03 12:38:55;;;;;;;1.25;1.17;;;43.50;39.20;;;;;;5085831;28;20196;-72
2022/06/03 12:41:46;;;;;;;1.13;1.10;;;45.90;37.30;;;;;;5087325;28;20193;-74
2022/06/03 12:44:34;;;;;;;1.15;1.15;;;47.80;33.90;;;;;;5086661;28;20243;-71
2022/06/03 12:47:18;;;;;;;1.38;1.00;;;48.90;33.70;;;;;;5079952;28;20657;-73
2022/06/03 12:49:43;;;;;;;1.27;1.00;;;49.30;32.90;;;;;;5089149;28;20194;-73
2022/06/03 12:52:33;;;;;;;2.20;1.25;;;50.00;33.10;;;;;;5084536;28;20181;-73
2022/06/03 12:55:20;;;;;;;1.20;1.20;;;51.00;31.90;;;;;;5086710;28;20269;-71
2022/06/03 12:57:51;;;;;;;2.50;1.27;;;50.90;32.00;;;;;;5091014;28;20216;-71
2022/06/03 13:00:49;;;;;;;1.00;1.00;;;49.50;32.80;;;;;;5087429;28;20209;-71
2022/06/03 13:03:17;;;;;;;2.60;1.30;;;49.50;33.30;;;;;;5083480;28;20185;-72
2022/06/03 13:05:51;;;;;;;1.23;1.13;;;50.70;32.20;;;;;;5076243;28;20201;-74
2022/06/03 13:08:29;;;;;;;1.17;1.17;;;50.70;31.70;;;;;;5075762;28;20198;-74
2022/06/03 13:11:19;;;;;;;1.00;1.00;;;49.90;32.60;;;;;;5075241;28;20225;-74
2022/06/03 13:14:16;;;;;;;1.10;1.10;;;49.70;32.00;;;;;;5078225;28;20182;-73
2022/06/03 13:16:44;;;;;;;1.13;1.08;;;51.70;31.80;;;;;;5072476;28;20757;-74
2022/06/03 13:19:17;;;;;;;1.40;1.00;;;53.90;30.20;;;;;;5075505;28;20295;-73
2022/06/03 13:21:58;;;;;;;1.40;1.30;;;54.70;29.70;;;;;;5073237;28;20251;-74
2022/06/03 13:24:29;;;;;;;1.30;1.20;;;55.00;29.20;;;;;;5069344;28;20262;-74
2022/06/03 13:27:23;;;;;;;1.42;1.40;;;54.30;29.40;;;;;;5077004;28;20256;-74
2022/06/03 13:29:52;;;;;;;1.40;1.30;;;53.20;29.80;;;;;;5085362;28;20802;-73
2022/06/03 13:32:35;;;;;;;1.17;1.10;;;53.60;30.10;;;;;;5080659;28;20187;-75
2022/06/03 13:35:18;;;;;;;1.00;1.00;;;53.80;29.70;;;;;;5081333;28;20924;-75
2022/06/03 13:37:52;;;;;;;1.23;1.17;;;54.10;29.40;;;;;;5082776;28;20469;-72
2022/06/03 13:40:19;;;;;;;1.90;1.13;;;54.20;29.50;;;;;;5087914;28;20234;-73
2022/06/03 13:43:18;;;;;;;1.25;1.15;;;54.70;28.90;;;;;;5079640;28;20208;-76
2022/06/03 13:45:55;;;;;;;1.10;1.10;;;52.60;30.00;;;;;;5097032;28;20212;-76
2022/06/03 13:48:32;;;;;;;1.30;0.95;;;51.60;30.90;;;;;;5089149;28;20178;-77
2022/06/03 13:51:21;;;;;;;1.17;1.17;;;51.90;30.70;;;;;;5095377;28;20189;-77
2022/06/03 13:54:00;;;;;;;1.63;1.08;;;52.40;29.80;;;;;;5094874;28;20178;-76
2022/06/03 13:56:28;;;;;;;1.48;1.38;;;51.90;30.30;;;;;;5090830;28;20186;-77
2022/06/03 13:58:56;;;;;;;2.95;1.10;;;50.20;32.10;;;;;;5090407;28;20688;-76
2022/06/03 14:01:45;;;;;;;1.20;1.20;;;49.20;32.80;;;;;;5094034;28;20197;-76
2022/06/03 14:04:27;;;;;;;1.25;1.25;;;48.20;33.70;;;;;;5097028;28;20200;-75
2022/06/03 14:07:01;;;;;;;1.65;1.02;;;47.10;34.00;;;;;;5091159;28;20178;-74
2022/06/03 14:09:45;;;;;;;2.85;1.38;;;46.30;33.90;;;;;;5091779;28;20260;-76
2022/06/03 14:12:25;;;;;;;1.15;1.08;;;44.90;34.60;;;;;;5088129;28;20181;-75
2022/06/03 14:15:09;;;;;;;2.53;1.05;;;43.20;36.70;;;;;;5092730;28;20269;-75
2022/06/03 14:17:47;;;;;;;1.83;1.17;;;42.80;36.90;;;;;;5081890;28;20181;-77
2022/06/03 14:20:27;;;;;;;1.75;1.33;;;43.30;37.10;;;;;;5083026;28;20814;-78
2022/06/03 14:23:14;;;;;;;1.38;1.27;;;43.20;36.90;;;;;;5088742;28;20182;-78
2022/06/03 14:25:50;;;;;;;1.25;1.25;;;44.00;36.90;;;;;;5092115;28;20205;-77
2022/06/03 14:28:34;;;;;;;1.40;1.27;;;44.50;36.30;;;;;;5091753;28;20182;-78
2022/06/03 14:31:02;;;;;;;1.58;1.20;;;44.30;37.10;;;;;;5090061;28;20209;-74
2022/06/03 14:33:38;;;;;;;1.48;1.00;;;43.70;37.30;;;;;;5088158;28;20551;-76
2022/06/03 14:36:06;;;;;;;1.40;1.30;;;43.00;38.10;;;;;;5092968;28;20454;-73